createdAt,value
2023-03-03T00:00:46.833Z,92.59
2023-03-03T00:03:20.027Z,100.00
2023-03-03T00:05:48.679Z,93.40
2023-03-03T00:08:17.817Z,93.98
2023-03-03T00:10:48.405Z,91.19
2023-03-03T00:13:18.969Z,87.54
2023-03-03T00:15:48.190Z,86.73
2023-03-03T00:18:28.786Z,87.92
2023-03-03T00:21:00.983Z,91.86
2023-03-03T00:23:36.082Z,100.00
2023-03-03T00:26:17.764Z,100.00
2023-03-03T00:28:48.873Z,100.00
2023-03-03T00:31:21.322Z,100.00
2023-03-03T00:33:54.782Z,100.00
2023-03-03T00:36:37.263Z,100.00
2023-03-03T00:39:27.211Z,92.12
2023-03-03T00:41:58.049Z,91.46
2023-03-03T00:44:39.977Z,95.46
2023-03-03T00:47:32.076Z,91.09
2023-03-03T00:50:29.775Z,92.82
2023-03-03T00:53:07.120Z,97.67
2023-03-03T00:55:36.975Z,92.93
2023-03-03T00:58:07.352Z,98.66
2023-03-03T01:00:36.367Z,98.83
2023-03-03T01:03:07.440Z,100.00
2023-03-03T01:05:36.333Z,100.00
2023-03-03T01:08:05.289Z,100.00
2023-03-03T01:10:39.027Z,100.00
2023-03-03T01:13:09.630Z,100.00
2023-03-03T01:15:39.312Z,100.00
2023-03-03T01:18:08.426Z,99.18
2023-03-03T01:20:36.986Z,100.00
2023-03-03T01:23:05.663Z,100.00
2023-03-03T01:25:34.473Z,100.00
2023-03-03T01:28:03.447Z,100.00
2023-03-03T01:30:33.778Z,100.00
2023-03-03T01:33:02.438Z,100.00
2023-03-03T01:35:31.240Z,100.00
2023-03-03T01:38:00.572Z,100.00
2023-03-03T01:40:31.878Z,100.00
2023-03-03T01:43:02.047Z,100.00
2023-03-03T01:45:33.622Z,100.00
2023-03-03T01:48:05.805Z,100.00
2023-03-03T01:50:42.811Z,100.00
2023-03-03T01:53:16.772Z,100.00
2023-03-03T01:55:47.195Z,100.00
2023-03-03T01:58:20.139Z,100.00
2023-03-03T02:00:56.362Z,100.00
2023-03-03T02:03:25.869Z,100.00
2023-03-03T02:05:59.040Z,100.00
2023-03-03T02:08:34.627Z,100.00
2023-03-03T02:11:04.179Z,100.00
2023-03-03T02:13:32.765Z,100.00
2023-03-03T02:16:02.961Z,100.00
2023-03-03T02:18:31.679Z,100.00
2023-03-03T02:21:06.384Z,100.00
2023-03-03T02:23:40.974Z,100.00
2023-03-03T02:26:13.492Z,100.00
2023-03-03T02:28:43.103Z,100.00
2023-03-03T02:31:15.657Z,100.00
2023-03-03T02:33:45.670Z,100.00
2023-03-03T02:36:15.571Z,100.00
2023-03-03T02:38:50.409Z,100.00
2023-03-03T02:41:33.643Z,100.00
2023-03-03T02:44:04.200Z,100.00
2023-03-03T02:46:36.703Z,100.00
2023-03-03T02:49:06.426Z,100.00
2023-03-03T02:51:35.484Z,100.00
2023-03-03T02:54:04.879Z,100.00
2023-03-03T02:56:34.981Z,100.00
2023-03-03T02:59:04.117Z,100.00
2023-03-03T03:01:37.082Z,100.00
2023-03-03T03:04:09.669Z,100.00
2023-03-03T03:06:38.382Z,100.00
2023-03-03T03:09:08.622Z,100.00
2023-03-03T03:11:38.832Z,100.00
2023-03-03T03:14:08.816Z,100.00
2023-03-03T03:19:14.315Z,100.00
2023-03-03T03:21:42.902Z,100.00
2023-03-03T03:24:11.566Z,100.00
2023-03-03T03:26:41.501Z,100.00
2023-03-03T03:29:11.098Z,100.00
2023-03-03T03:31:39.735Z,93.06
2023-03-03T03:34:08.286Z,97.35
2023-03-03T03:36:39.903Z,98.56
2023-03-03T03:39:08.518Z,99.17
2023-03-03T03:41:37.096Z,96.58
2023-03-03T03:44:07.330Z,98.29
2023-03-03T03:46:35.927Z,94.54
2023-03-03T03:49:04.550Z,88.31
2023-03-03T03:51:35.600Z,88.79
2023-03-03T03:54:04.198Z,90.48
2023-03-03T03:56:32.791Z,89.91
2023-03-03T03:59:01.763Z,90.99
2023-03-03T04:01:31.718Z,89.18
2023-03-03T04:04:00.274Z,97.55
2023-03-03T04:06:28.862Z,94.73
2023-03-03T04:08:57.855Z,100.00
2023-03-03T04:11:26.717Z,100.00
2023-03-03T04:13:55.287Z,100.00
2023-03-03T04:16:23.927Z,100.00
2023-03-03T04:18:53.875Z,100.00
2023-03-03T04:21:22.588Z,100.00
2023-03-03T04:23:51.171Z,100.00
2023-03-03T04:26:19.871Z,96.75
2023-03-03T04:28:48.437Z,100.00
2023-03-03T04:31:17.079Z,98.53
2023-03-03T04:33:45.638Z,100.00
2023-03-03T04:36:15.577Z,94.83
2023-03-03T04:38:44.123Z,97.03
2023-03-03T04:41:12.807Z,100.00
2023-03-03T04:43:41.421Z,100.00
2023-03-03T04:46:10.042Z,100.00
2023-03-03T04:48:38.632Z,96.39
2023-03-03T04:51:07.410Z,100.00
2023-03-03T04:53:38.400Z,100.00
2023-03-03T04:56:07.535Z,100.00
2023-03-03T04:58:36.095Z,100.00
2023-03-03T05:01:04.694Z,99.80
2023-03-03T05:03:33.296Z,100.00
2023-03-03T05:06:01.923Z,100.00
2023-03-03T05:08:30.485Z,100.00
2023-03-03T05:11:01.557Z,100.00
2023-03-03T05:13:31.093Z,100.00
2023-03-03T05:15:59.777Z,100.00
2023-03-03T05:18:28.796Z,100.00
2023-03-03T05:20:57.549Z,100.00
2023-03-03T05:23:26.141Z,95.56
2023-03-03T05:25:54.761Z,93.71
2023-03-03T05:28:24.765Z,94.35
2023-03-03T05:30:53.346Z,99.72
2023-03-03T05:33:21.916Z,98.48
2023-03-03T05:35:55.689Z,100.00
2023-03-03T05:38:24.837Z,100.00
2023-03-03T05:40:54.771Z,98.60
2023-03-03T05:43:24.849Z,98.06
2023-03-03T05:45:57.329Z,99.66
2023-03-03T05:48:26.095Z,97.89
2023-03-03T05:50:54.690Z,95.70
2023-03-03T05:53:23.278Z,95.22
2023-03-03T05:55:51.829Z,100.00
2023-03-03T05:58:20.478Z,100.00
2023-03-03T06:00:50.520Z,100.00
2023-03-03T06:03:19.284Z,100.00
2023-03-03T06:05:47.919Z,95.88
2023-03-03T06:08:16.553Z,99.70
2023-03-03T06:10:45.117Z,99.51
2023-03-03T06:13:13.748Z,100.00
2023-03-03T06:15:42.492Z,98.24
2023-03-03T06:18:12.493Z,91.36
2023-03-03T06:20:41.045Z,93.07
2023-03-03T06:23:09.611Z,92.75
2023-03-03T06:25:39.877Z,89.62
2023-03-03T06:28:08.469Z,91.95
2023-03-03T06:30:37.072Z,89.09
2023-03-03T06:33:05.956Z,89.36
2023-03-03T06:35:36.467Z,87.20
2023-03-03T06:38:05.229Z,86.68
2023-03-03T06:40:33.778Z,84.94
2023-03-03T06:43:03.347Z,85.66
2023-03-03T06:45:31.973Z,83.71
2023-03-03T06:48:00.570Z,81.66
2023-03-03T06:50:29.140Z,82.25
2023-03-03T06:53:06.254Z,82.82
2023-03-03T06:55:34.821Z,82.74
2023-03-03T06:58:06.768Z,83.93
2023-03-03T07:00:35.947Z,82.04
2023-03-03T07:03:10.055Z,89.30
2023-03-03T07:05:39.654Z,93.92
2023-03-03T07:08:16.872Z,93.94
2023-03-03T07:10:46.796Z,90.19
2023-03-03T07:13:20.483Z,86.53
2023-03-03T07:15:50.365Z,91.43
2023-03-03T07:18:40.767Z,88.79
2023-03-03T07:21:18.184Z,84.28
2023-03-03T07:23:49.727Z,88.56
2023-03-03T07:26:22.702Z,88.08
2023-03-03T07:28:55.665Z,84.44
2023-03-03T07:31:35.270Z,83.32
2023-03-03T07:34:15.279Z,82.11
2023-03-03T07:36:44.470Z,80.80
2023-03-03T07:39:31.666Z,82.63
2023-03-03T07:42:19.928Z,83.21
2023-03-03T07:44:49.642Z,90.41
2023-03-03T07:47:23.102Z,87.81
2023-03-03T07:49:53.152Z,88.04
2023-03-03T07:52:27.919Z,92.96
2023-03-03T07:54:59.152Z,92.31
2023-03-03T07:57:31.604Z,92.23
2023-03-03T08:00:23.766Z,86.13
2023-03-03T08:02:56.828Z,87.38
2023-03-03T08:05:32.331Z,88.25
2023-03-03T08:08:23.552Z,86.59
2023-03-03T08:10:55.852Z,85.71
2023-03-03T08:13:25.906Z,82.92
2023-03-03T08:15:58.325Z,88.61
2023-03-03T08:18:30.866Z,94.90
2023-03-03T08:21:01.252Z,100.00
2023-03-03T08:23:29.865Z,92.83
2023-03-03T08:25:59.793Z,91.10
2023-03-03T08:28:28.360Z,87.04
2023-03-03T08:31:12.568Z,85.81
2023-03-03T08:33:43.776Z,88.43
2023-03-03T08:36:13.141Z,84.37
2023-03-03T08:38:41.877Z,90.61
2023-03-03T08:41:12.297Z,88.00
2023-03-03T08:43:41.175Z,85.14
2023-03-03T08:46:10.427Z,85.02
2023-03-03T08:48:39.178Z,84.42
2023-03-03T08:51:07.853Z,85.61
2023-03-03T08:53:38.270Z,83.96
2023-03-03T08:56:08.083Z,84.06
2023-03-03T08:58:41.992Z,88.66
2023-03-03T09:01:13.789Z,96.80
2023-03-03T09:03:42.385Z,95.24
2023-03-03T09:06:11.674Z,93.75
2023-03-03T09:08:40.311Z,92.32
2023-03-03T09:11:13.033Z,86.20
2023-03-03T09:13:42.971Z,81.13
2023-03-03T09:16:16.169Z,88.52
2023-03-03T09:18:46.079Z,89.30
2023-03-03T09:21:22.151Z,86.42
2023-03-03T09:23:56.185Z,89.28
2023-03-03T09:26:31.057Z,90.44
2023-03-03T09:29:21.434Z,85.01
2023-03-03T09:31:52.859Z,84.66
2023-03-03T09:34:24.660Z,86.14
2023-03-03T09:36:54.846Z,91.96
2023-03-03T09:39:25.270Z,97.11
2023-03-03T09:42:38.821Z,90.08
2023-03-03T09:45:27.676Z,85.15
2023-03-03T09:48:20.933Z,88.26
2023-03-03T09:51:00.164Z,85.04
2023-03-03T09:53:56.803Z,80.87
2023-03-03T09:56:33.921Z,82.76
2023-03-03T09:59:27.784Z,81.63
2023-03-03T10:02:14.401Z,79.69
2023-03-03T10:05:05.070Z,85.99
2023-03-03T10:07:44.590Z,86.00
2023-03-03T10:10:46.936Z,88.49
2023-03-03T10:13:32.940Z,85.63
2023-03-03T10:16:20.905Z,80.81
2023-03-03T10:18:57.155Z,84.21
2023-03-03T10:21:30.895Z,90.87
2023-03-03T10:24:10.711Z,87.69
2023-03-03T10:27:13.104Z,84.00
2023-03-03T10:29:49.571Z,85.21
2023-03-03T10:32:33.404Z,83.49
2023-03-03T10:35:20.625Z,84.39
2023-03-03T10:38:03.810Z,88.79
2023-03-03T10:40:41.274Z,85.61
2023-03-03T10:43:36.049Z,82.46
2023-03-03T10:46:28.425Z,83.04
2023-03-03T10:51:45.913Z,81.37
2023-03-03T10:54:31.623Z,85.25
2023-03-03T10:57:08.721Z,81.42
2023-03-03T10:59:52.258Z,80.48
2023-03-03T11:02:31.068Z,86.05
2023-03-03T11:05:14.147Z,86.65
2023-03-03T11:07:50.385Z,86.82
2023-03-03T11:10:39.925Z,83.30
2023-03-03T11:13:16.954Z,89.88
2023-03-03T11:16:07.293Z,89.70
2023-03-03T11:18:46.439Z,90.24
2023-03-03T11:21:23.067Z,87.06
2023-03-03T11:24:15.166Z,80.21
2023-03-03T11:27:06.880Z,82.06
2023-03-03T11:29:56.012Z,90.35
2023-03-03T11:32:34.989Z,89.15
2023-03-03T11:35:28.658Z,86.17
2023-03-03T11:38:09.278Z,81.13
2023-03-03T11:40:48.622Z,82.26
2023-03-03T11:43:36.221Z,79.58
2023-03-03T11:46:10.947Z,75.70
2023-03-03T11:48:47.716Z,76.85
2023-03-03T11:51:23.428Z,79.87
2023-03-03T11:54:07.284Z,77.22
2023-03-03T11:56:42.858Z,78.94
2023-03-03T11:59:39.667Z,76.42
2023-03-03T12:02:25.219Z,80.26
2023-03-03T12:04:58.119Z,79.79
2023-03-03T12:07:34.563Z,80.55
2023-03-03T12:10:15.387Z,76.14
2023-03-03T12:12:51.000Z,80.55
2023-03-03T12:15:32.074Z,77.33
2023-03-03T12:18:26.976Z,76.01
2023-03-03T12:21:08.799Z,79.10
2023-03-03T12:23:58.406Z,78.33
2023-03-03T12:26:36.454Z,84.47
2023-03-03T12:29:14.560Z,79.46
2023-03-03T12:31:53.671Z,79.87
2023-03-03T12:34:31.714Z,77.44
2023-03-03T12:37:22.877Z,78.15
2023-03-03T12:40:03.929Z,78.90
2023-03-03T12:42:59.630Z,77.17
2023-03-03T12:45:42.270Z,77.80
2023-03-03T12:48:21.344Z,74.58
2023-03-03T12:51:00.517Z,75.08
2023-03-03T12:53:58.078Z,78.96
2023-03-03T12:56:35.721Z,79.85
2023-03-03T12:59:16.496Z,80.71
2023-03-03T13:02:04.864Z,80.33
2023-03-03T13:04:43.895Z,82.88
2023-03-03T13:07:20.689Z,80.29
2023-03-03T13:10:08.449Z,79.64
2023-03-03T13:12:47.668Z,82.56
2023-03-03T13:15:32.676Z,79.74
2023-03-03T13:18:21.053Z,79.04
2023-03-03T13:20:55.271Z,80.83
2023-03-03T13:23:39.268Z,82.25
2023-03-03T13:26:15.403Z,82.01
2023-03-03T13:28:56.075Z,82.79
2023-03-03T13:31:32.400Z,81.11
2023-03-03T13:34:03.860Z,82.17
2023-03-03T13:36:39.568Z,82.09
2023-03-03T13:39:19.369Z,85.31
2023-03-03T13:41:57.812Z,80.02
2023-03-03T13:44:32.671Z,75.75
2023-03-03T13:47:13.480Z,81.24
2023-03-03T13:52:58.301Z,78.57
2023-03-03T13:55:31.675Z,79.11
2023-03-03T13:58:05.912Z,81.81
2023-03-03T14:00:51.055Z,82.71
2023-03-03T14:03:52.245Z,82.72
2023-03-03T14:06:23.841Z,80.33
2023-03-03T14:09:16.672Z,75.21
2023-03-03T14:11:50.199Z,78.72
2023-03-03T14:14:46.312Z,80.82
2023-03-03T14:17:27.476Z,80.50
2023-03-03T14:20:07.794Z,77.10
2023-03-03T14:22:44.472Z,76.48
2023-03-03T14:25:16.225Z,78.03
2023-03-03T14:28:10.842Z,79.39
2023-03-03T14:30:41.839Z,80.21
2023-03-03T14:33:27.572Z,83.57
2023-03-03T14:36:05.852Z,82.91
2023-03-03T14:38:51.820Z,79.38
2023-03-03T14:41:36.041Z,76.38
2023-03-03T14:44:26.984Z,74.96
2023-03-03T14:47:21.695Z,78.23
2023-03-03T14:49:50.816Z,75.89
2023-03-03T14:52:26.360Z,74.07
2023-03-03T14:54:57.010Z,77.77
2023-03-03T14:57:46.642Z,78.03
2023-03-03T15:00:35.881Z,79.53
2023-03-03T15:03:19.910Z,80.71
2023-03-03T15:05:52.673Z,79.76
2023-03-03T15:08:32.050Z,77.71
2023-03-03T15:11:18.920Z,80.81
2023-03-03T15:13:49.170Z,78.20
2023-03-03T15:16:22.991Z,78.87
2023-03-03T15:19:34.123Z,79.63
2023-03-03T15:22:12.070Z,78.14
2023-03-03T15:24:47.348Z,79.38
2023-03-03T15:27:24.883Z,80.75
2023-03-03T15:30:04.979Z,81.16
2023-03-03T15:32:41.698Z,79.14
2023-03-03T15:35:24.657Z,74.85
2023-03-03T15:37:58.101Z,76.17
2023-03-03T15:40:29.868Z,78.38
2023-03-03T15:43:10.590Z,79.02
2023-03-03T15:45:52.663Z,79.80
2023-03-03T15:48:44.853Z,79.49
2023-03-03T15:51:24.933Z,77.70
2023-03-03T15:54:10.915Z,75.94
2023-03-03T15:56:48.077Z,78.96
2023-03-03T15:59:57.455Z,77.50
2023-03-03T16:02:36.636Z,77.50
2023-03-03T16:05:15.235Z,76.96
2023-03-03T16:07:56.492Z,77.25
2023-03-03T16:10:35.902Z,77.06
2023-03-03T16:13:22.210Z,76.49
2023-03-03T16:16:00.525Z,77.02
2023-03-03T16:18:42.179Z,77.22
2023-03-03T16:21:24.724Z,77.15
2023-03-03T16:23:57.458Z,77.20
2023-03-03T16:26:36.676Z,77.56
2023-03-03T16:29:27.131Z,75.70
2023-03-03T16:32:02.154Z,77.25
2023-03-03T16:34:41.767Z,78.82
2023-03-03T16:37:19.760Z,76.91
2023-03-03T16:39:56.552Z,78.50
2023-03-03T16:42:30.525Z,78.41
2023-03-03T16:45:21.163Z,77.87
2023-03-03T16:48:00.819Z,78.51
2023-03-03T16:50:39.503Z,78.79
2023-03-03T16:53:19.948Z,78.63
2023-03-03T16:56:00.073Z,79.25
2023-03-03T16:58:40.779Z,77.67
2023-03-03T17:01:20.624Z,77.79
2023-03-03T17:04:02.257Z,79.37
2023-03-03T17:06:42.721Z,79.11
2023-03-03T17:09:39.539Z,78.86
2023-03-03T17:12:23.889Z,79.03
2023-03-03T17:15:14.853Z,78.57
2023-03-03T17:17:48.258Z,79.40
2023-03-03T17:20:31.219Z,79.59
2023-03-03T17:23:27.282Z,79.53
2023-03-03T17:26:05.165Z,79.87
2023-03-03T17:28:45.887Z,79.70
2023-03-03T17:31:22.556Z,79.78
2023-03-03T17:34:08.423Z,80.07
2023-03-03T17:36:51.233Z,80.00
2023-03-03T17:39:42.817Z,80.17
2023-03-03T17:42:19.298Z,80.64
2023-03-03T17:44:57.038Z,80.40
2023-03-03T17:47:44.256Z,80.42
2023-03-03T17:50:40.881Z,80.47
2023-03-03T17:53:32.668Z,80.13
2023-03-03T17:56:13.877Z,79.96
2023-03-03T17:58:57.932Z,79.62
2023-03-03T18:01:39.063Z,79.43
2023-03-03T18:04:42.497Z,79.00
2023-03-03T18:07:42.657Z,79.39
2023-03-03T18:10:42.790Z,79.90
2023-03-03T18:13:31.927Z,80.04
2023-03-03T18:16:12.892Z,79.73
2023-03-03T18:19:04.587Z,79.97
2023-03-03T18:21:40.031Z,79.92
2023-03-03T18:24:29.188Z,80.04
2023-03-03T18:27:13.422Z,79.71
2023-03-03T18:30:35.396Z,79.12
2023-03-03T18:33:14.765Z,78.68
2023-03-03T18:35:45.520Z,77.88
2023-03-03T18:38:39.782Z,77.66
2023-03-03T18:41:12.663Z,77.81
2023-03-03T18:43:59.569Z,77.53
2023-03-03T18:46:51.077Z,77.50
2023-03-03T18:49:20.166Z,77.47
2023-03-03T18:51:51.973Z,77.13
2023-03-03T18:54:31.474Z,77.62
2023-03-03T18:57:20.482Z,77.29
2023-03-03T18:59:58.405Z,77.04
2023-03-03T19:02:39.051Z,76.68
2023-03-03T19:05:19.458Z,77.33
2023-03-03T19:08:00.483Z,77.12
2023-03-03T19:10:51.092Z,77.16
2023-03-03T19:13:44.772Z,77.45
2023-03-03T19:16:30.650Z,76.85
2023-03-03T19:19:12.056Z,76.81
2023-03-03T19:21:43.803Z,76.04
2023-03-03T19:24:34.887Z,77.17
2023-03-03T19:27:33.157Z,77.37
2023-03-03T19:30:22.990Z,76.33
2023-03-03T19:33:15.912Z,78.17
2023-03-03T19:36:07.679Z,76.28
2023-03-03T19:38:44.164Z,78.40
2023-03-03T19:41:30.506Z,78.13
2023-03-03T19:44:08.789Z,77.52
2023-03-03T19:46:56.827Z,77.03
2023-03-03T19:49:43.227Z,76.64
2023-03-03T19:52:23.607Z,77.63
2023-03-03T19:55:03.707Z,77.69
2023-03-03T19:57:43.754Z,77.18
2023-03-03T20:00:24.591Z,75.95
2023-03-03T20:03:20.667Z,77.32
2023-03-03T20:05:57.577Z,77.38
2023-03-03T20:08:34.779Z,77.51
2023-03-03T20:11:11.236Z,77.18
2023-03-03T20:13:53.999Z,77.46
2023-03-03T20:16:35.064Z,76.84
2023-03-03T20:19:22.865Z,76.36
2023-03-03T20:22:04.265Z,76.45
2023-03-03T20:25:05.645Z,77.07
2023-03-03T20:27:45.992Z,77.40
2023-03-03T20:30:26.345Z,76.52
2023-03-03T20:33:14.733Z,76.97
2023-03-03T20:35:55.444Z,76.87
2023-03-03T20:38:36.570Z,75.89
2023-03-03T20:41:15.721Z,76.58
2023-03-03T20:43:57.398Z,77.25
2023-03-03T20:46:36.678Z,77.15
2023-03-03T20:49:24.684Z,77.08
2023-03-03T20:51:58.372Z,76.42
2023-03-03T20:54:37.508Z,76.76
2023-03-03T20:57:12.009Z,76.90
2023-03-03T20:59:49.280Z,76.85
2023-03-03T21:02:27.316Z,77.09
2023-03-03T21:05:12.566Z,76.65
2023-03-03T21:07:53.407Z,76.99
2023-03-03T21:10:24.835Z,77.24
2023-03-03T21:12:55.410Z,76.64
2023-03-03T21:15:30.984Z,76.77
2023-03-03T21:18:00.991Z,77.40
2023-03-03T21:20:34.475Z,76.99
2023-03-03T21:23:06.155Z,76.88
2023-03-03T21:25:49.370Z,76.91
2023-03-03T21:28:20.467Z,76.99
2023-03-03T21:31:18.031Z,77.25
2023-03-03T21:33:52.863Z,73.20
2023-03-03T21:36:24.462Z,77.03
2023-03-03T21:38:54.712Z,77.65
2023-03-03T21:41:23.297Z,74.26
2023-03-03T21:43:53.428Z,74.20
2023-03-03T21:46:25.237Z,75.82
2023-03-03T21:48:54.085Z,78.68
2023-03-03T21:51:24.436Z,76.72
2023-03-03T21:53:53.045Z,77.84
2023-03-03T21:56:21.632Z,77.42
2023-03-03T21:58:50.173Z,76.23
2023-03-03T22:01:18.819Z,77.15
2023-03-03T22:03:48.777Z,78.18
2023-03-03T22:06:17.665Z,78.80
2023-03-03T22:08:46.242Z,78.11
2023-03-03T22:11:15.681Z,77.41
2023-03-03T22:13:44.302Z,76.52
2023-03-03T22:16:13.266Z,78.69
2023-03-03T22:18:41.901Z,75.44
2023-03-03T22:21:11.844Z,81.76
2023-03-03T22:23:40.417Z,81.89
2023-03-03T22:26:09.089Z,78.94
2023-03-03T22:28:37.635Z,74.55
2023-03-03T22:31:07.266Z,77.04
2023-03-03T22:33:36.117Z,79.13
2023-03-03T22:36:04.925Z,77.24
2023-03-03T22:38:34.867Z,78.26
2023-03-03T22:41:03.663Z,77.30
2023-03-03T22:43:32.233Z,76.57
2023-03-03T22:46:00.906Z,79.52
2023-03-03T22:48:30.738Z,80.55
2023-03-03T22:50:59.395Z,80.27
2023-03-03T22:53:28.172Z,78.63
2023-03-03T22:55:58.156Z,79.11
2023-03-03T22:58:26.725Z,78.25
2023-03-03T23:00:55.907Z,77.89
2023-03-03T23:03:24.598Z,75.23
2023-03-03T23:05:53.346Z,76.60
2023-03-03T23:08:22.553Z,77.19
2023-03-03T23:10:51.206Z,77.50
2023-03-03T23:13:21.120Z,74.28
2023-03-03T23:15:49.727Z,74.76
2023-03-03T23:18:18.358Z,78.87
2023-03-03T23:20:46.967Z,77.67
2023-03-03T23:23:15.561Z,76.63
2023-03-03T23:25:44.133Z,76.85
2023-03-03T23:28:15.475Z,76.09
2023-03-03T23:30:45.470Z,76.48
2023-03-03T23:33:14.061Z,76.15
2023-03-03T23:35:45.275Z,76.29
2023-03-03T23:38:17.611Z,76.15
2023-03-03T23:40:47.741Z,76.51
2023-03-03T23:43:16.360Z,75.23
2023-03-03T23:45:46.313Z,76.50
2023-03-03T23:48:15.024Z,76.61
2023-03-03T23:50:43.622Z,73.41
2023-03-03T23:53:12.176Z,74.25
2023-03-03T23:55:40.710Z,75.71
2023-03-03T23:58:09.723Z,77.35
